»·PEaware :: N38PD KVCV-KSEE

N38PD :: KVCV-KSEE

FLIGHT INFORMATION

Flight Status: Arrived
Operator: Privately registered:
United States
More flights under this callsign
Pilot: Dave G. (4634)
Aircraft: CESSNA 172 SKYHAWK
(C172)
More flights by this aircraft type
Origin: KVCV Socal Logistics
United States
Destination: KSEE Gillespie
United States
More flights between these airports :: More routes between these airports
Route: +EMMLN V442 PDZ V186 HAILE V66 MZB
File this flight plan on PilotEdge
Remarks: KVCV ODP
Altitude:
(Current/Filed)
10,000ft
Speed:
(Current/Filed)
109kts
Departed: 12-Aug-20 06:49 PM
Arrived: 12-Aug-20 07:59 PM
Distance/Time
Traveled:
108nm/1:09
Distance/Time
To Go:
Arrived

Flight Plot

Page will automatically refresh every two minutes.

Flight plan parsing failed; only flown route is shown


Map Options




Map Legend


Flown Route
Filed Route
Departure Airport
Arrival Airport
Navaid (VOR, NDB)
Fix

Horizontal Profiles

Position Reports

Time Latitude Longitude Heading Altitude Ground
Speed
12-Aug-20 18:34 34.588017 -117.375658 310 2870ft 0kts
12-Aug-20 18:35 34.588017 -117.375658 310 2870ft 0kts
12-Aug-20 18:36 34.588017 -117.375658 310 2870ft 0kts
12-Aug-20 18:37 34.588017 -117.375658 310 2870ft 0kts
12-Aug-20 18:38 34.588017 -117.375658 310 2870ft 0kts
12-Aug-20 18:39 34.588017 -117.375658 310 2870ft 0kts
12-Aug-20 18:40 34.588017 -117.375658 310 2870ft 0kts
12-Aug-20 18:41 34.588017 -117.375658 310 2870ft 0kts
12-Aug-20 18:42 34.588473 -117.376259 314 2870ft 13kts
12-Aug-20 18:43 34.592640 -117.373081 42 2862ft 34kts
12-Aug-20 18:44 34.595147 -117.367538 11 2851ft 27kts
12-Aug-20 18:45 34.599036 -117.366538 10 2843ft 0kts
12-Aug-20 18:46 34.599036 -117.366538 10 2843ft 0kts
12-Aug-20 18:47 34.599036 -117.366538 10 2843ft 0kts
12-Aug-20 18:48 34.598377 -117.369154 223 2847ft 65kts
12-Aug-20 18:49 34.587220 -117.392777 257 3657ft 85kts
12-Aug-20 18:50 34.584307 -117.419277 258 4641ft 72kts
12-Aug-20 18:51 34.581962 -117.442925 258 5465ft 73kts
12-Aug-20 18:52 34.576711 -117.465070 199 6255ft 67kts
12-Aug-20 18:53 34.560099 -117.450759 139 6904ft 86kts
12-Aug-20 18:54 34.542376 -117.428545 139 7521ft 93kts
12-Aug-20 18:55 34.525933 -117.407653 139 8300ft 77kts
12-Aug-20 18:56 34.511224 -117.388658 139 8888ft 81kts
12-Aug-20 18:57 34.495843 -117.368910 139 9509ft 74kts
12-Aug-20 18:58 34.481003 -117.349807 139 9959ft 84kts
12-Aug-20 18:59 34.461094 -117.325379 138 9987ft 114kts
12-Aug-20 19:00 34.438193 -117.298247 138 9982ft 114kts
12-Aug-20 19:01 34.416160 -117.272023 138 10065ft 111kts
12-Aug-20 19:02 34.390036 -117.253151 174 10047ft 110kts
12-Aug-20 19:03 34.361123 -117.262519 205 10043ft 108kts
12-Aug-20 19:04 34.333907 -117.278944 206 10039ft 110kts
12-Aug-20 19:05 34.306311 -117.295669 206 10032ft 110kts
12-Aug-20 19:06 34.278989 -117.312217 206 10024ft 109kts
12-Aug-20 19:07 34.251594 -117.328775 206 10013ft 110kts
12-Aug-20 19:08 34.224201 -117.345320 206 10006ft 109kts
12-Aug-20 19:09 34.196891 -117.361803 206 10006ft 109kts
12-Aug-20 19:10 34.169701 -117.378200 206 10007ft 109kts
12-Aug-20 19:11 34.142575 -117.394545 206 10007ft 109kts
12-Aug-20 19:12 34.115367 -117.410929 206 10007ft 109kts
12-Aug-20 19:13 34.088105 -117.427219 205 10006ft 109kts
12-Aug-20 19:14 34.060830 -117.443185 206 10005ft 109kts
12-Aug-20 19:15 34.034380 -117.459031 206 10003ft 109kts
12-Aug-20 19:16 34.007108 -117.475407 206 10002ft 109kts
12-Aug-20 19:17 33.979909 -117.491728 206 10000ft 108kts
12-Aug-20 19:18 33.952833 -117.507960 206 9998ft 108kts
12-Aug-20 19:19 33.925676 -117.524231 206 9997ft 108kts
12-Aug-20 19:20 33.896884 -117.518735 161 9998ft 113kts
12-Aug-20 19:21 33.872684 -117.493361 138 10002ft 116kts
12-Aug-20 19:22 33.847502 -117.468891 147 10006ft 115kts
12-Aug-20 19:23 33.820981 -117.446692 148 9968ft 117kts
12-Aug-20 19:24 33.794328 -117.424409 148 9976ft 116kts
12-Aug-20 19:25 33.767835 -117.402241 148 9983ft 116kts
12-Aug-20 19:26 33.741372 -117.380121 148 9989ft 116kts
12-Aug-20 19:27 33.714831 -117.357956 148 9992ft 116kts
12-Aug-20 19:28 33.688194 -117.335727 148 9992ft 116kts
12-Aug-20 19:29 33.661634 -117.313579 148 9992ft 116kts
12-Aug-20 19:31 33.635166 -117.291529 148 9992ft 115kts
12-Aug-20 19:32 33.608815 -117.269585 148 9992ft 115kts
12-Aug-20 19:33 33.582518 -117.247707 148 9990ft 115kts
12-Aug-20 19:34 33.556224 -117.225845 148 9986ft 114kts
12-Aug-20 19:35 33.530110 -117.204147 148 9981ft 114kts
12-Aug-20 19:36 33.504003 -117.182469 148 9977ft 113kts
12-Aug-20 19:37 33.478040 -117.161003 150 9970ft 113kts
12-Aug-20 19:38 33.447864 -117.154224 170 9967ft 110kts
12-Aug-20 19:39 33.417674 -117.147551 169 9982ft 109kts
12-Aug-20 19:40 33.387872 -117.141203 169 9990ft 109kts
12-Aug-20 19:41 33.358086 -117.134890 169 10001ft 108kts
12-Aug-20 19:42 33.328210 -117.128560 169 9998ft 109kts
12-Aug-20 19:43 33.298155 -117.122694 169 10000ft 108kts
12-Aug-20 19:44 33.265859 -117.111818 166 9340ft 129kts
12-Aug-20 19:45 33.230699 -117.100681 165 8531ft 131kts
12-Aug-20 19:46 33.195554 -117.089492 165 7680ft 131kts
12-Aug-20 19:47 33.160412 -117.078281 165 6777ft 131kts
12-Aug-20 19:48 33.125172 -117.067037 166 5872ft 131kts
12-Aug-20 19:48 33.095885 -117.057634 165 5243ft 127kts
12-Aug-20 19:50 33.057056 -117.045072 166 4818ft 126kts
12-Aug-20 19:50 33.027700 -117.035833 167 4149ft 132kts
12-Aug-20 19:51 32.994305 -117.025070 166 4008ft 117kts
12-Aug-20 19:52 32.962910 -117.015058 167 3912ft 120kts
12-Aug-20 19:53 32.931227 -116.999141 155 3512ft 125kts
12-Aug-20 19:54 32.901132 -116.980384 148 2938ft 123kts
12-Aug-20 19:55 32.871419 -116.958426 147 2071ft 127kts
12-Aug-20 19:56 32.843841 -116.945493 184 1402ft 103kts
12-Aug-20 19:57 32.825292 -116.959789 281 828ft 76kts
12-Aug-20 19:58 32.828217 -116.971839 357 371ft 12kts
12-Aug-20 19:59 32.828693 -116.970734 65 373ft 17kts

Navigation Log

Ident Type
Flight plan parsing failed, navigation log unavailable